createdAt,value
2024-05-09T00:00:38.981Z,3.73
2024-05-09T00:06:03.288Z,4.00
2024-05-09T00:11:26.444Z,3.17
2024-05-09T00:16:49.557Z,3.90
2024-05-09T00:22:11.708Z,3.87
2024-05-09T00:27:33.785Z,3.90
2024-05-09T00:32:56.300Z,3.70
2024-05-09T00:38:19.053Z,3.77
2024-05-09T00:43:41.180Z,3.83
2024-05-09T00:49:03.529Z,3.50
2024-05-09T00:54:26.723Z,3.63
2024-05-09T00:59:49.257Z,3.50
2024-05-09T01:05:11.414Z,4.03
2024-05-09T01:10:35.404Z,3.50
2024-05-09T01:15:58.529Z,3.53
2024-05-09T01:21:20.861Z,3.50
2024-05-09T01:26:42.839Z,3.70
2024-05-09T01:32:05.120Z,3.80
2024-05-09T01:37:27.475Z,3.57
2024-05-09T01:42:49.738Z,4.27
2024-05-09T01:48:12.122Z,3.67
2024-05-09T01:53:34.484Z,3.87
2024-05-09T01:58:56.508Z,3.87
2024-05-09T02:04:19.089Z,3.77
2024-05-09T02:09:41.462Z,3.43
2024-05-09T02:15:03.836Z,3.50
2024-05-09T02:20:33.706Z,4.13
2024-05-09T02:25:58.604Z,3.40
2024-05-09T02:31:21.171Z,3.47
2024-05-09T02:36:43.125Z,4.13
2024-05-09T02:42:05.074Z,3.77
2024-05-09T02:47:27.432Z,4.60
2024-05-09T02:52:49.813Z,3.80
2024-05-09T02:58:12.099Z,4.10
2024-05-09T03:03:34.635Z,3.30
2024-05-09T03:08:57.079Z,3.73
2024-05-09T03:14:19.877Z,3.83
2024-05-09T03:19:41.910Z,3.73
2024-05-09T03:25:04.622Z,3.87
2024-05-09T03:30:38.356Z,3.77
2024-05-09T03:36:08.971Z,3.77
2024-05-09T03:41:32.554Z,4.20
2024-05-09T03:46:54.694Z,4.13
2024-05-09T03:52:17.094Z,4.00
2024-05-09T03:57:39.141Z,4.27
2024-05-09T04:03:02.077Z,4.60
2024-05-09T04:08:24.365Z,3.83
2024-05-09T04:13:46.741Z,4.17
2024-05-09T04:19:08.856Z,4.43
2024-05-09T04:24:31.078Z,4.00
2024-05-09T04:29:53.310Z,3.60
2024-05-09T04:35:18.750Z,3.90
2024-05-09T04:40:40.732Z,3.77
2024-05-09T04:46:02.883Z,3.90
2024-05-09T04:51:25.155Z,4.27
2024-05-09T04:56:47.005Z,4.07
2024-05-09T05:02:09.661Z,4.00
2024-05-09T05:07:31.716Z,3.77
2024-05-09T05:13:13.232Z,4.10
2024-05-09T05:18:37.081Z,4.40
2024-05-09T05:23:59.166Z,4.37
2024-05-09T05:29:21.258Z,4.77
2024-05-09T05:34:43.448Z,5.40
2024-05-09T05:40:05.856Z,5.23
2024-05-09T05:45:29.876Z,6.17
2024-05-09T05:50:52.386Z,4.90
2024-05-09T05:56:14.378Z,4.50
2024-05-09T06:01:36.737Z,4.47
2024-05-09T06:06:58.937Z,4.57
2024-05-09T06:12:21.351Z,4.47
2024-05-09T06:17:43.357Z,4.73
2024-05-09T06:23:09.821Z,4.87
2024-05-09T06:28:32.880Z,5.20
2024-05-09T06:33:55.369Z,4.47
2024-05-09T06:39:17.438Z,4.77
2024-05-09T06:44:39.811Z,4.50
2024-05-09T06:50:03.738Z,4.57
2024-05-09T06:55:27.344Z,4.67
2024-05-09T07:00:49.904Z,4.50
2024-05-09T07:06:12.020Z,5.37
2024-05-09T07:11:34.620Z,4.73
2024-05-09T07:16:56.752Z,4.20
2024-05-09T07:22:19.164Z,4.50
2024-05-09T07:27:41.344Z,4.17
2024-05-09T07:33:04.217Z,4.40
2024-05-09T07:38:26.739Z,5.20
2024-05-09T07:43:49.233Z,4.53
2024-05-09T07:50:53.499Z,4.47
2024-05-09T07:54:53.282Z,4.17
2024-05-09T08:00:20.409Z,3.80
2024-05-09T08:05:48.963Z,4.30
2024-05-09T08:11:11.314Z,3.50
2024-05-09T08:16:33.458Z,4.60
2024-05-09T08:21:56.117Z,4.47
2024-05-09T08:27:18.332Z,4.80
2024-05-09T08:32:40.917Z,4.90
2024-05-09T08:38:04.654Z,3.67
2024-05-09T08:43:28.096Z,3.97
2024-05-09T08:48:50.400Z,3.50
2024-05-09T08:54:12.731Z,3.53
2024-05-09T08:59:36.650Z,3.40
2024-05-09T09:05:05.803Z,3.90
2024-05-09T09:10:32.297Z,3.27
2024-05-09T09:15:58.896Z,2.95
2024-05-09T09:21:21.432Z,3.65
2024-05-09T09:26:45.640Z,3.25
2024-05-09T09:32:08.647Z,4.15
2024-05-09T09:37:31.111Z,3.40
2024-05-09T09:42:58.099Z,3.22
2024-05-09T09:48:20.684Z,3.05
2024-05-09T09:53:44.392Z,2.88
2024-05-09T09:59:07.390Z,3.08
2024-05-09T10:04:29.831Z,2.80
2024-05-09T10:09:56.517Z,2.70
2024-05-09T10:15:20.120Z,2.40
2024-05-09T10:20:45.941Z,2.58
2024-05-09T10:26:08.402Z,2.42
2024-05-09T10:31:30.958Z,2.50
2024-05-09T10:36:54.483Z,2.53
2024-05-09T10:42:17.098Z,2.58
2024-05-09T10:47:40.655Z,2.38
2024-05-09T10:53:03.085Z,2.20
2024-05-09T10:58:26.362Z,2.25
2024-05-09T11:03:49.684Z,1.85
2024-05-09T11:09:12.037Z,2.20
2024-05-09T11:14:35.022Z,2.30
2024-05-09T11:19:57.561Z,2.17
2024-05-09T11:25:19.829Z,2.20
2024-05-09T11:30:42.243Z,2.35
2024-05-09T11:36:05.069Z,2.13
2024-05-09T11:41:27.528Z,2.05
2024-05-09T11:46:49.743Z,1.73
2024-05-09T11:52:11.969Z,1.95
2024-05-09T11:57:34.140Z,2.10
2024-05-09T12:02:58.865Z,1.90
2024-05-09T12:08:20.819Z,1.92
2024-05-09T12:13:43.322Z,1.90
2024-05-09T12:19:05.481Z,1.60
2024-05-09T12:24:28.980Z,2.15
2024-05-09T12:29:51.126Z,2.10
2024-05-09T12:35:13.116Z,1.70
2024-05-09T12:40:38.167Z,2.55
2024-05-09T12:46:03.385Z,1.92
2024-05-09T12:51:25.462Z,1.95
2024-05-09T12:56:47.779Z,1.70
2024-05-09T13:02:10.229Z,2.25
2024-05-09T13:07:32.791Z,2.00
2024-05-09T13:12:55.336Z,1.90
2024-05-09T13:18:17.899Z,2.50
2024-05-09T13:23:40.247Z,2.10
2024-05-09T13:29:02.396Z,2.05
2024-05-09T13:34:24.641Z,2.33
2024-05-09T13:39:46.978Z,1.83
2024-05-09T13:45:09.451Z,1.73
2024-05-09T13:50:35.643Z,2.10
2024-05-09T13:55:59.252Z,2.05
2024-05-09T14:01:21.581Z,1.90
2024-05-09T14:06:43.864Z,1.95
2024-05-09T14:12:07.389Z,1.90
2024-05-09T14:17:31.159Z,1.95
2024-05-09T14:22:53.374Z,2.50
2024-05-09T14:28:15.889Z,2.42
2024-05-09T14:33:38.145Z,2.35
2024-05-09T14:39:00.587Z,2.65
2024-05-09T14:44:22.732Z,2.15
2024-05-09T14:49:44.944Z,2.67
2024-05-09T14:55:10.106Z,2.55
2024-05-09T15:00:36.798Z,2.28
2024-05-09T15:06:00.341Z,2.38
2024-05-09T15:11:23.493Z,2.17
2024-05-09T15:16:45.653Z,2.25
2024-05-09T15:22:08.057Z,2.35
2024-05-09T15:27:30.240Z,2.20
2024-05-09T15:32:52.895Z,2.05
2024-05-09T15:38:15.776Z,2.17
2024-05-09T15:43:38.116Z,2.13
2024-05-09T15:49:00.868Z,2.47
2024-05-09T15:54:25.009Z,2.33
2024-05-09T15:59:47.623Z,2.38
2024-05-09T16:05:10.190Z,2.65
2024-05-09T16:10:34.303Z,2.63
2024-05-09T16:15:57.969Z,2.47
2024-05-09T16:21:20.104Z,2.50
2024-05-09T16:26:43.143Z,2.33
2024-05-09T16:32:05.754Z,2.38
2024-05-09T16:37:29.503Z,2.40
2024-05-09T16:42:52.289Z,2.28
2024-05-09T16:48:14.999Z,3.03
2024-05-09T16:53:37.131Z,2.60
2024-05-09T16:58:59.284Z,2.65
2024-05-09T17:04:21.765Z,2.50
2024-05-09T17:09:44.267Z,2.40
2024-05-09T17:15:06.291Z,3.80
2024-05-09T17:20:33.531Z,3.08
2024-05-09T17:25:58.438Z,2.55
2024-05-09T17:31:20.625Z,3.40
2024-05-09T17:36:42.786Z,3.10
2024-05-09T17:42:05.288Z,3.03
2024-05-09T17:47:27.778Z,3.80
2024-05-09T17:52:52.949Z,3.80
2024-05-09T17:58:15.441Z,3.67
2024-05-09T18:03:38.235Z,4.30
2024-05-09T18:09:00.627Z,5.47
2024-05-09T18:14:23.176Z,5.80
2024-05-09T18:19:45.887Z,6.72
2024-05-09T18:25:08.126Z,6.47
2024-05-09T18:30:34.554Z,5.55
2024-05-09T18:35:58.745Z,6.40
2024-05-09T18:41:21.844Z,4.70
2024-05-09T18:46:43.803Z,5.22
2024-05-09T18:52:06.541Z,5.40
2024-05-09T18:57:28.936Z,4.78
2024-05-09T19:02:51.277Z,5.43
2024-05-09T19:08:14.673Z,5.95
2024-05-09T19:13:36.916Z,7.38
2024-05-09T19:18:59.385Z,7.63
2024-05-09T19:24:21.822Z,8.35
2024-05-09T19:29:43.843Z,9.45
2024-05-09T19:35:05.882Z,8.73
2024-05-09T19:40:32.105Z,8.77
2024-05-09T19:45:56.294Z,8.97
2024-05-09T19:51:18.616Z,8.53
2024-05-09T19:56:44.846Z,9.17
2024-05-09T20:02:07.505Z,8.40
2024-05-09T20:07:29.836Z,9.17
2024-05-09T20:12:52.488Z,8.83
2024-05-09T20:18:17.911Z,9.10
2024-05-09T20:23:40.409Z,8.00
2024-05-09T20:29:02.681Z,9.03
2024-05-09T20:34:25.355Z,9.20
2024-05-09T20:39:47.740Z,9.40
2024-05-09T20:45:09.759Z,9.40
2024-05-09T20:50:38.552Z,9.37
2024-05-09T20:56:03.608Z,8.93
2024-05-09T21:01:26.065Z,8.80
2024-05-09T21:06:48.051Z,9.30
2024-05-09T21:12:10.214Z,8.83
2024-05-09T21:17:32.482Z,10.00
2024-05-09T21:22:54.640Z,8.30
2024-05-09T21:28:16.833Z,9.20
2024-05-09T21:33:39.216Z,8.23
2024-05-09T21:39:01.576Z,10.20
2024-05-09T21:44:23.835Z,11.30
2024-05-09T21:49:45.886Z,11.87
2024-05-09T21:55:08.173Z,10.43
2024-05-09T22:00:36.331Z,9.17
2024-05-09T22:06:00.842Z,8.53
2024-05-09T22:11:23.084Z,9.10
2024-05-09T22:16:45.515Z,9.50
2024-05-09T22:22:07.835Z,10.20
2024-05-09T22:27:29.915Z,9.73
2024-05-09T22:32:52.400Z,9.97
2024-05-09T22:38:14.461Z,10.10
2024-05-09T22:43:36.576Z,9.10
2024-05-09T22:48:59.257Z,8.80
2024-05-09T22:54:21.334Z,8.67
2024-05-09T22:59:43.549Z,7.90
2024-05-09T23:05:06.282Z,8.97
2024-05-09T23:10:35.446Z,8.33
2024-05-09T23:15:59.775Z,8.60
2024-05-09T23:21:22.213Z,7.93
2024-05-09T23:26:44.369Z,8.13
2024-05-09T23:32:06.753Z,8.13
2024-05-09T23:37:29.073Z,8.83
2024-05-09T23:42:51.529Z,8.77
2024-05-09T23:48:13.932Z,8.37
2024-05-09T23:53:36.211Z,8.30
2024-05-09T23:58:58.216Z,8.00
